createdAt,value
2019-05-26T00:01:01.754Z,49.34
2019-05-26T00:03:30.440Z,51.05
2019-05-26T00:05:59.108Z,53.08
2019-05-26T00:08:27.720Z,51.58
2019-05-26T00:10:56.339Z,52.46
2019-05-26T00:13:25.017Z,51.08
2019-05-26T00:15:53.697Z,52.01
2019-05-26T00:18:22.381Z,50.57
2019-05-26T00:20:51.111Z,49.79
2019-05-26T00:23:19.810Z,51.10
2019-05-26T00:25:48.420Z,50.84
2019-05-26T00:28:17.070Z,50.22
2019-05-26T00:30:45.774Z,49.75
2019-05-26T00:33:14.390Z,49.52
2019-05-26T00:35:43.132Z,49.71
2019-05-26T00:38:11.747Z,49.16
2019-05-26T00:40:40.444Z,49.33
2019-05-26T00:43:09.104Z,49.50
2019-05-26T00:45:38.003Z,49.45
2019-05-26T00:48:06.723Z,49.05
2019-05-26T00:50:35.544Z,50.33
2019-05-26T00:53:04.240Z,49.97
2019-05-26T00:55:32.922Z,49.23
2019-05-26T00:58:01.669Z,49.10
2019-05-26T01:00:43.330Z,49.86
2019-05-26T01:03:12.754Z,49.39
2019-05-26T01:05:41.631Z,50.21
2019-05-26T01:08:10.513Z,50.90
2019-05-26T01:10:39.173Z,50.97
2019-05-26T01:13:08.036Z,50.42
2019-05-26T01:15:36.724Z,50.31
2019-05-26T01:18:06.634Z,50.58
2019-05-26T01:20:35.318Z,53.42
2019-05-26T01:23:04.244Z,52.57
2019-05-26T01:25:32.897Z,52.57
2019-05-26T01:28:01.519Z,51.83
2019-05-26T01:30:35.469Z,51.24
2019-05-26T01:33:04.674Z,50.94
2019-05-26T01:35:35.155Z,50.83
2019-05-26T01:38:03.980Z,52.01
2019-05-26T01:40:35.536Z,51.97
2019-05-26T01:43:04.344Z,51.40
2019-05-26T01:45:33.030Z,52.01
2019-05-26T01:48:01.778Z,51.86
2019-05-26T01:50:30.394Z,52.38
2019-05-26T01:52:59.088Z,53.64
2019-05-26T01:55:27.817Z,52.54
2019-05-26T01:57:56.442Z,53.16
2019-05-26T02:00:25.057Z,53.12
2019-05-26T02:02:53.871Z,52.72
2019-05-26T02:05:22.492Z,52.09
2019-05-26T02:07:51.183Z,52.99
2019-05-26T02:10:20.108Z,51.78
2019-05-26T02:12:48.751Z,53.00
2019-05-26T02:15:18.343Z,52.70
2019-05-26T02:17:47.059Z,52.87
2019-05-26T02:20:15.954Z,52.65
2019-05-26T02:22:44.635Z,52.66
2019-05-26T02:25:14.683Z,53.45
2019-05-26T02:27:43.304Z,54.10
2019-05-26T02:30:12.332Z,54.05
2019-05-26T02:32:40.996Z,53.37
2019-05-26T02:35:10.487Z,52.43
2019-05-26T02:37:39.099Z,53.61
2019-05-26T02:40:10.138Z,54.29
2019-05-26T02:42:39.227Z,53.46
2019-05-26T02:45:10.481Z,53.77
2019-05-26T02:47:39.206Z,53.21
2019-05-26T02:50:08.546Z,52.65
2019-05-26T02:52:37.165Z,53.19
2019-05-26T02:55:09.705Z,53.03
2019-05-26T02:57:38.323Z,53.00
2019-05-26T03:00:10.964Z,53.87
2019-05-26T03:02:40.123Z,53.15
2019-05-26T03:05:12.109Z,53.66
2019-05-26T03:07:43.855Z,55.24
2019-05-26T03:10:15.320Z,55.29
2019-05-26T03:12:44.406Z,55.30
2019-05-26T03:15:14.186Z,53.89
2019-05-26T03:17:42.904Z,54.52
2019-05-26T03:20:14.395Z,54.22
2019-05-26T03:22:43.200Z,57.00
2019-05-26T03:25:13.552Z,57.25
2019-05-26T03:27:42.163Z,58.38
2019-05-26T03:30:11.228Z,57.69
2019-05-26T03:32:39.971Z,57.94
2019-05-26T03:35:10.402Z,56.30
2019-05-26T03:37:39.104Z,54.67
2019-05-26T03:40:08.817Z,53.80
2019-05-26T03:42:37.446Z,53.75
2019-05-26T03:45:07.808Z,54.25
2019-05-26T03:47:36.542Z,54.95
2019-05-26T03:50:09.979Z,54.22
2019-05-26T03:52:38.682Z,53.00
2019-05-26T03:55:07.860Z,53.02
2019-05-26T03:57:36.568Z,53.06
2019-05-26T04:00:08.316Z,52.40
2019-05-26T04:02:37.052Z,52.93
2019-05-26T04:05:07.190Z,52.80
2019-05-26T04:07:35.879Z,53.29
2019-05-26T04:10:08.157Z,54.17
2019-05-26T04:12:36.849Z,52.82
2019-05-26T04:15:07.322Z,52.85
2019-05-26T04:17:36.045Z,52.71
2019-05-26T04:20:06.127Z,52.68
2019-05-26T04:22:34.818Z,53.96
2019-05-26T04:25:04.543Z,53.01
2019-05-26T04:27:33.155Z,52.85
2019-05-26T04:30:01.889Z,53.53
2019-05-26T04:32:30.586Z,53.10
2019-05-26T04:34:59.289Z,54.33
2019-05-26T04:37:27.979Z,54.12
2019-05-26T04:39:56.697Z,53.51
2019-05-26T04:42:25.384Z,54.45
2019-05-26T04:44:54.085Z,54.49
2019-05-26T04:47:22.805Z,54.09
2019-05-26T04:49:51.414Z,54.16
2019-05-26T04:52:20.878Z,54.91
2019-05-26T04:54:49.616Z,55.14
2019-05-26T04:57:18.291Z,53.69
2019-05-26T04:59:46.909Z,53.40
2019-05-26T05:02:15.564Z,55.72
2019-05-26T05:04:44.187Z,57.79
2019-05-26T05:07:12.885Z,57.86
2019-05-26T05:09:41.613Z,57.12
2019-05-26T05:12:10.314Z,55.39
2019-05-26T05:14:38.944Z,55.39
2019-05-26T05:17:07.679Z,55.50
2019-05-26T05:19:36.289Z,55.36
2019-05-26T05:22:05.010Z,55.37
2019-05-26T05:24:33.745Z,53.15
2019-05-26T05:27:02.374Z,52.15
2019-05-26T05:29:31.063Z,51.82
2019-05-26T05:31:59.776Z,52.35
2019-05-26T05:34:28.399Z,54.45
2019-05-26T05:36:57.029Z,55.24
2019-05-26T05:39:25.711Z,53.51
2019-05-26T05:41:54.333Z,53.37
2019-05-26T05:44:23.028Z,53.20
2019-05-26T05:46:51.697Z,51.43
2019-05-26T05:49:20.365Z,52.25
2019-05-26T05:51:49.067Z,50.85
2019-05-26T05:54:18.660Z,50.09
2019-05-26T05:56:47.345Z,51.56
2019-05-26T05:59:15.961Z,50.65
2019-05-26T06:01:44.685Z,48.70
2019-05-26T06:04:13.301Z,48.81
2019-05-26T06:06:41.993Z,50.68
2019-05-26T06:09:10.652Z,49.54
2019-05-26T06:11:39.341Z,49.01
2019-05-26T06:14:08.048Z,49.72
2019-05-26T06:16:36.766Z,49.36
2019-05-26T06:19:05.378Z,47.88
2019-05-26T06:21:33.996Z,49.23
2019-05-26T06:24:02.654Z,46.97
2019-05-26T06:26:31.274Z,46.74
2019-05-26T06:28:59.897Z,47.61
2019-05-26T06:31:28.618Z,48.96
2019-05-26T06:33:57.244Z,49.07
2019-05-26T06:36:25.929Z,48.13
2019-05-26T06:38:54.662Z,46.92
2019-05-26T06:41:32.918Z,47.03
2019-05-26T06:43:53.782Z,47.44
2019-05-26T06:46:22.524Z,47.64
2019-05-26T06:48:51.218Z,47.78
2019-05-26T06:51:19.912Z,48.50
2019-05-26T06:53:48.566Z,45.96
2019-05-26T06:56:18.866Z,45.67
2019-05-26T06:58:47.560Z,46.63
2019-05-26T07:01:16.219Z,46.76
2019-05-26T07:03:44.833Z,46.73
2019-05-26T07:06:13.447Z,45.01
2019-05-26T07:08:42.107Z,44.83
2019-05-26T07:11:10.798Z,46.60
2019-05-26T07:13:39.416Z,46.23
2019-05-26T07:16:08.198Z,44.87
2019-05-26T07:18:36.796Z,43.48
2019-05-26T07:21:05.415Z,41.41
2019-05-26T07:23:34.140Z,43.73
2019-05-26T07:26:02.825Z,42.89
2019-05-26T07:28:31.505Z,43.34
2019-05-26T07:31:00.224Z,42.52
2019-05-26T07:33:28.925Z,42.45
2019-05-26T07:35:57.606Z,44.94
2019-05-26T07:38:26.263Z,44.66
2019-05-26T07:40:54.876Z,43.65
2019-05-26T07:43:23.565Z,42.77
2019-05-26T07:45:52.231Z,41.98
2019-05-26T07:48:20.847Z,43.16
2019-05-26T07:50:49.470Z,42.21
2019-05-26T07:53:18.185Z,41.41
2019-05-26T07:55:46.878Z,43.10
2019-05-26T07:58:16.329Z,42.33
2019-05-26T08:00:45.058Z,42.28
2019-05-26T08:03:13.744Z,41.95
2019-05-26T08:05:42.558Z,43.61
2019-05-26T08:08:13.170Z,42.88
2019-05-26T08:10:41.626Z,41.71
2019-05-26T08:13:11.499Z,41.44
2019-05-26T08:15:40.220Z,41.58
2019-05-26T08:18:08.841Z,41.54
2019-05-26T08:20:37.528Z,41.69
2019-05-26T08:23:06.311Z,41.75
2019-05-26T08:25:34.947Z,40.77
2019-05-26T08:28:03.638Z,40.65
2019-05-26T08:30:32.358Z,40.47
2019-05-26T08:33:01.097Z,40.01
2019-05-26T08:35:29.755Z,40.53
2019-05-26T08:37:58.433Z,40.42
2019-05-26T08:40:27.126Z,41.13
2019-05-26T08:42:55.739Z,41.41
2019-05-26T08:45:24.490Z,41.11
2019-05-26T08:47:53.398Z,40.10
2019-05-26T08:50:22.309Z,41.61
2019-05-26T08:52:51.029Z,40.90
2019-05-26T08:55:20.028Z,40.47
2019-05-26T08:57:48.721Z,41.66
2019-05-26T09:00:18.920Z,38.77
2019-05-26T09:02:47.533Z,39.19
2019-05-26T09:05:16.449Z,39.45
2019-05-26T09:07:45.166Z,38.38
2019-05-26T09:10:13.989Z,38.92
2019-05-26T09:12:42.678Z,39.11
2019-05-26T09:15:11.608Z,39.17
2019-05-26T09:17:40.224Z,38.90
2019-05-26T09:20:11.379Z,37.36
2019-05-26T09:22:40.579Z,37.21
2019-05-26T09:25:09.769Z,37.16
2019-05-26T09:27:38.449Z,37.25
2019-05-26T09:30:08.571Z,37.73
2019-05-26T09:32:37.455Z,38.87
2019-05-26T09:35:07.539Z,38.06
2019-05-26T09:37:36.285Z,37.20
2019-05-26T09:40:09.640Z,36.92
2019-05-26T09:42:38.317Z,36.51
2019-05-26T09:45:08.551Z,35.46
2019-05-26T09:47:37.240Z,35.23
2019-05-26T09:50:07.032Z,35.28
2019-05-26T09:52:35.776Z,34.94
2019-05-26T09:55:08.592Z,33.60
2019-05-26T09:57:37.285Z,35.99
2019-05-26T10:00:07.255Z,36.98
2019-05-26T10:02:36.807Z,35.71
2019-05-26T10:05:06.496Z,35.03
2019-05-26T10:07:35.229Z,33.84
2019-05-26T10:10:06.079Z,34.11
2019-05-26T10:12:34.690Z,32.29
2019-05-26T10:15:05.147Z,32.03
2019-05-26T10:17:33.763Z,32.32
2019-05-26T10:20:02.459Z,33.67
2019-05-26T10:22:31.136Z,33.99
2019-05-26T10:24:59.828Z,32.56
2019-05-26T10:27:28.513Z,31.33
2019-05-26T10:29:57.171Z,31.06
2019-05-26T10:32:25.802Z,31.75
2019-05-26T10:34:54.412Z,32.36
2019-05-26T10:37:23.138Z,32.89
2019-05-26T10:39:51.760Z,32.29
2019-05-26T10:42:20.453Z,31.91
2019-05-26T10:44:49.178Z,32.47
2019-05-26T10:47:17.874Z,31.57
2019-05-26T10:49:46.558Z,31.29
2019-05-26T10:52:15.266Z,31.50
2019-05-26T10:54:43.892Z,31.89
2019-05-26T10:57:12.579Z,31.86
2019-05-26T10:59:41.355Z,31.85
2019-05-26T11:02:09.988Z,32.30
2019-05-26T11:04:39.458Z,32.10
2019-05-26T11:07:08.196Z,30.78
2019-05-26T11:09:36.824Z,32.57
2019-05-26T11:12:05.610Z,31.27
2019-05-26T11:14:34.337Z,30.82
2019-05-26T11:17:03.022Z,31.08
2019-05-26T11:19:31.713Z,31.42
2019-05-26T11:22:00.371Z,30.88
2019-05-26T11:24:29.059Z,30.40
2019-05-26T11:27:08.256Z,29.75
2019-05-26T11:29:28.229Z,30.14
2019-05-26T11:31:56.864Z,29.88
2019-05-26T11:34:25.993Z,29.63
2019-05-26T11:36:54.650Z,30.00
2019-05-26T11:39:23.337Z,29.68
2019-05-26T11:41:54.980Z,31.47
2019-05-26T11:44:22.393Z,31.14
2019-05-26T11:46:51.080Z,29.32
2019-05-26T11:49:19.763Z,29.28
2019-05-26T11:51:48.490Z,29.06
2019-05-26T11:54:17.108Z,29.60
2019-05-26T11:56:45.798Z,28.94
2019-05-26T11:59:14.447Z,28.63
2019-05-26T12:01:43.156Z,29.28
2019-05-26T12:04:11.852Z,30.40
2019-05-26T12:06:41.436Z,32.07
2019-05-26T12:09:10.155Z,29.84
2019-05-26T12:11:38.773Z,29.33
2019-05-26T12:14:07.493Z,30.48
2019-05-26T12:16:36.193Z,30.93
2019-05-26T12:19:04.981Z,30.32
2019-05-26T12:21:33.639Z,30.50
2019-05-26T12:24:02.321Z,33.05
2019-05-26T12:26:30.943Z,30.37
2019-05-26T12:28:59.657Z,30.40
2019-05-26T12:31:28.343Z,29.83
2019-05-26T12:33:57.037Z,29.39
2019-05-26T12:36:25.758Z,28.69
2019-05-26T12:38:54.378Z,29.30
2019-05-26T12:41:23.096Z,30.07
2019-05-26T12:43:51.813Z,30.53
2019-05-26T12:46:20.496Z,28.70
2019-05-26T12:48:49.180Z,29.44
2019-05-26T12:51:17.933Z,30.94
2019-05-26T12:53:46.625Z,28.86
2019-05-26T12:56:15.252Z,28.37
2019-05-26T12:58:43.974Z,27.68
2019-05-26T13:01:12.593Z,27.94
2019-05-26T13:03:41.284Z,27.05
2019-05-26T13:06:10.010Z,27.28
2019-05-26T13:08:39.555Z,26.55
2019-05-26T13:11:08.178Z,28.32
2019-05-26T13:13:36.822Z,28.66
2019-05-26T13:16:05.617Z,29.58
2019-05-26T13:18:34.241Z,28.31
2019-05-26T13:21:02.960Z,27.90
2019-05-26T13:23:31.652Z,30.94
2019-05-26T13:26:00.347Z,31.22
2019-05-26T13:28:28.999Z,29.15
2019-05-26T13:30:58.589Z,29.28
2019-05-26T13:33:27.283Z,29.79
2019-05-26T13:35:56.007Z,30.00
2019-05-26T13:38:24.691Z,29.01
2019-05-26T13:40:53.382Z,29.29
2019-05-26T13:43:22.045Z,29.25
2019-05-26T13:45:50.741Z,28.79
2019-05-26T13:48:19.438Z,29.52
2019-05-26T13:50:48.156Z,28.84
2019-05-26T13:53:16.773Z,28.62
2019-05-26T13:55:45.394Z,28.48
2019-05-26T13:58:14.190Z,27.80
2019-05-26T14:00:42.747Z,29.34
2019-05-26T14:03:11.435Z,28.21
2019-05-26T14:05:40.172Z,27.04
2019-05-26T14:08:08.865Z,27.18
2019-05-26T14:10:38.892Z,26.51
2019-05-26T14:13:07.714Z,26.70
2019-05-26T14:15:39.008Z,26.31
2019-05-26T14:18:07.440Z,27.21
2019-05-26T14:20:41.061Z,28.76
2019-05-26T14:23:10.463Z,27.78
2019-05-26T14:25:39.552Z,27.43
2019-05-26T14:28:08.777Z,30.16
2019-05-26T14:30:37.575Z,27.57
2019-05-26T14:33:06.358Z,29.62
2019-05-26T14:35:35.083Z,27.70
2019-05-26T14:38:03.793Z,27.45
2019-05-26T14:40:32.494Z,29.06
2019-05-26T14:43:01.295Z,28.16
2019-05-26T14:45:30.038Z,29.24
2019-05-26T14:47:58.746Z,29.06
2019-05-26T14:50:27.407Z,27.28
2019-05-26T14:52:56.136Z,27.80
2019-05-26T14:55:24.746Z,27.48
2019-05-26T14:57:53.481Z,27.42
2019-05-26T15:00:22.694Z,29.70
2019-05-26T15:02:51.387Z,27.74
2019-05-26T15:05:20.636Z,27.85
2019-05-26T15:07:49.318Z,30.54
2019-05-26T15:10:18.303Z,27.40
2019-05-26T15:12:47.879Z,28.17
2019-05-26T15:15:17.098Z,28.30
2019-05-26T15:17:45.878Z,28.57
2019-05-26T15:20:14.983Z,28.42
2019-05-26T15:22:43.678Z,26.89
2019-05-26T15:25:13.168Z,27.78
2019-05-26T15:27:41.904Z,27.92
2019-05-26T15:30:12.190Z,28.97
2019-05-26T15:32:40.926Z,29.57
2019-05-26T15:35:09.997Z,30.68
2019-05-26T15:37:38.691Z,29.65
2019-05-26T15:40:08.711Z,30.22
2019-05-26T15:42:37.440Z,29.02
2019-05-26T15:45:07.737Z,30.33
2019-05-26T15:47:36.539Z,30.73
2019-05-26T15:50:11.445Z,29.17
2019-05-26T15:52:39.790Z,29.27
2019-05-26T15:55:08.686Z,28.22
2019-05-26T15:57:37.403Z,29.09
2019-05-26T16:00:08.657Z,31.20
2019-05-26T16:02:37.332Z,31.55
2019-05-26T16:05:07.260Z,29.86
2019-05-26T16:07:35.890Z,30.72
2019-05-26T16:10:09.092Z,29.09
2019-05-26T16:12:40.553Z,29.71
2019-05-26T16:15:09.671Z,29.98
2019-05-26T16:17:39.091Z,30.57
2019-05-26T16:20:08.906Z,33.45
2019-05-26T16:22:37.622Z,32.99
2019-05-26T16:25:07.321Z,32.75
2019-05-26T16:27:36.045Z,32.56
2019-05-26T16:30:07.782Z,31.82
2019-05-26T16:32:36.480Z,30.52
2019-05-26T16:35:05.923Z,30.05
2019-05-26T16:37:34.627Z,31.67
2019-05-26T16:40:03.823Z,32.60
2019-05-26T16:42:32.484Z,32.03
2019-05-26T16:45:01.177Z,30.97
2019-05-26T16:47:29.802Z,31.04
2019-05-26T16:49:58.535Z,30.65
2019-05-26T16:52:27.264Z,31.74
2019-05-26T16:54:55.950Z,32.75
2019-05-26T16:57:24.684Z,32.09
2019-05-26T16:59:53.388Z,33.47
2019-05-26T17:02:22.012Z,31.96
2019-05-26T17:04:50.794Z,31.95
2019-05-26T17:07:19.530Z,34.72
2019-05-26T17:09:48.229Z,35.36
2019-05-26T17:12:17.185Z,33.39
2019-05-26T17:14:45.813Z,32.79
2019-05-26T17:17:15.505Z,34.42
2019-05-26T17:19:44.396Z,32.96
2019-05-26T17:22:13.124Z,33.06
2019-05-26T17:24:41.704Z,33.38
2019-05-26T17:27:10.448Z,35.10
2019-05-26T17:29:39.146Z,35.35
2019-05-26T17:32:07.761Z,35.93
2019-05-26T17:34:36.493Z,34.65
2019-05-26T17:37:05.208Z,34.81
2019-05-26T17:39:33.895Z,35.02
2019-05-26T17:42:02.632Z,37.39
2019-05-26T17:44:31.325Z,36.55
2019-05-26T17:47:00.033Z,38.08
2019-05-26T17:49:28.750Z,38.52
2019-05-26T17:51:57.377Z,36.98
2019-05-26T18:19:32.668Z,36.28
2019-05-26T18:22:01.287Z,37.64
2019-05-26T18:24:29.987Z,38.71
2019-05-26T18:26:58.728Z,36.47
2019-05-26T18:29:27.426Z,38.82
2019-05-26T18:31:56.168Z,36.81
2019-05-26T18:34:24.934Z,36.98
2019-05-26T18:36:53.643Z,35.77
2019-05-26T18:39:22.337Z,37.54
2019-05-26T18:41:51.095Z,37.31
2019-05-26T18:44:19.773Z,37.33
2019-05-26T18:46:48.480Z,36.19
2019-05-26T18:49:17.226Z,35.04
2019-05-26T18:51:45.843Z,37.30
2019-05-26T18:54:14.544Z,36.73
2019-05-26T18:56:43.298Z,36.22
2019-05-26T18:59:12.003Z,36.64
2019-05-26T19:01:40.695Z,37.25
2019-05-26T19:04:09.443Z,36.53
2019-05-26T19:06:38.149Z,36.76
2019-05-26T19:09:10.288Z,36.98
2019-05-26T19:11:39.013Z,36.01
2019-05-26T19:14:07.707Z,35.91
2019-05-26T19:16:36.408Z,35.58
2019-05-26T19:19:05.345Z,35.54
2019-05-26T19:21:34.051Z,36.17
2019-05-26T19:24:02.740Z,35.55
2019-05-26T19:26:31.473Z,36.07
2019-05-26T19:29:00.182Z,36.71
2019-05-26T19:31:28.875Z,36.65
2019-05-26T19:33:57.592Z,36.71
2019-05-26T19:36:26.281Z,36.34
2019-05-26T19:38:54.899Z,37.01
2019-05-26T19:41:24.495Z,36.78
2019-05-26T19:43:53.188Z,36.48
2019-05-26T19:46:21.878Z,36.59
2019-05-26T19:48:50.607Z,37.09
2019-05-26T19:51:19.225Z,38.30
2019-05-26T19:53:47.843Z,37.01
2019-05-26T19:56:16.564Z,38.06
2019-05-26T19:58:45.254Z,37.50
2019-05-26T20:01:13.952Z,38.12
2019-05-26T20:03:42.671Z,36.94
2019-05-26T20:06:11.371Z,37.13
2019-05-26T20:08:40.065Z,37.40
2019-05-26T20:11:08.714Z,37.05
2019-05-26T20:13:37.346Z,37.45
2019-05-26T20:16:06.019Z,38.48
2019-05-26T20:18:34.743Z,37.99
2019-05-26T20:21:03.608Z,38.04
2019-05-26T20:23:33.150Z,37.96
2019-05-26T20:26:01.870Z,38.28
2019-05-26T20:28:30.634Z,39.43
2019-05-26T20:30:59.333Z,39.37
2019-05-26T20:33:28.054Z,39.66
2019-05-26T20:35:56.742Z,40.42
2019-05-26T20:38:25.437Z,40.35
2019-05-26T20:40:54.152Z,40.26
2019-05-26T20:43:25.029Z,40.74
2019-05-26T20:45:53.239Z,41.31
2019-05-26T20:48:21.974Z,40.88
2019-05-26T20:50:52.024Z,41.71
2019-05-26T20:53:20.721Z,40.44
2019-05-26T20:55:49.434Z,41.06
2019-05-26T20:58:18.128Z,41.15
2019-05-26T21:00:46.748Z,41.53
2019-05-26T21:03:15.483Z,41.08
2019-05-26T21:05:44.167Z,40.87
2019-05-26T21:08:12.791Z,40.13
2019-05-26T21:10:41.519Z,41.72
2019-05-26T21:13:10.215Z,41.92
2019-05-26T21:15:38.838Z,42.12
2019-05-26T21:18:07.571Z,41.48
2019-05-26T21:20:36.291Z,41.48
2019-05-26T21:23:04.990Z,41.81
2019-05-26T21:25:34.558Z,41.62
2019-05-26T21:28:03.248Z,41.17
2019-05-26T21:30:31.925Z,41.34
2019-05-26T21:33:00.652Z,41.35
2019-05-26T21:35:29.432Z,42.81
2019-05-26T21:37:58.130Z,42.74
2019-05-26T21:40:26.855Z,42.13
2019-05-26T21:42:55.573Z,42.08
2019-05-26T21:45:24.184Z,42.32
2019-05-26T21:47:52.911Z,42.60
2019-05-26T21:50:21.630Z,43.34
2019-05-26T21:52:50.253Z,43.38
2019-05-26T21:55:18.906Z,43.28
2019-05-26T21:57:47.603Z,42.78
2019-05-26T22:00:23.909Z,43.04
2019-05-26T22:02:52.618Z,42.95
2019-05-26T22:05:21.297Z,43.76
2019-05-26T22:07:50.039Z,43.49
2019-05-26T22:10:18.740Z,43.70
2019-05-26T22:12:47.500Z,43.41
2019-05-26T22:15:16.553Z,43.54
2019-05-26T22:17:45.191Z,43.75
2019-05-26T22:20:13.991Z,44.00
2019-05-26T22:22:42.736Z,44.21
2019-05-26T22:25:11.535Z,44.19
2019-05-26T22:27:40.995Z,44.41
2019-05-26T22:30:10.387Z,45.01
2019-05-26T22:32:39.015Z,44.85
2019-05-26T22:35:09.116Z,44.94
2019-05-26T22:37:37.752Z,44.97
2019-05-26T22:40:06.974Z,45.11
2019-05-26T22:42:35.605Z,45.24
2019-05-26T22:45:05.891Z,44.58
2019-05-26T22:47:34.580Z,45.65
2019-05-26T22:50:04.479Z,45.61
2019-05-26T22:52:33.138Z,45.71
2019-05-26T22:55:01.831Z,45.74
2019-05-26T22:57:30.523Z,46.72
2019-05-26T22:59:59.237Z,46.42
2019-05-26T23:02:27.937Z,46.42
2019-05-26T23:04:56.623Z,47.06
2019-05-26T23:07:25.350Z,46.42
2019-05-26T23:09:54.040Z,46.24
2019-05-26T23:12:22.818Z,46.34
2019-05-26T23:14:51.540Z,46.22
2019-05-26T23:17:20.163Z,47.10
2019-05-26T23:19:48.864Z,46.79
2019-05-26T23:22:17.520Z,47.61
2019-05-26T23:24:46.204Z,47.79
2019-05-26T23:27:14.817Z,47.35
2019-05-26T23:29:43.552Z,47.25
2019-05-26T23:32:12.162Z,47.25
2019-05-26T23:34:40.776Z,47.34
2019-05-26T23:37:09.514Z,47.10
2019-05-26T23:39:38.204Z,47.39
2019-05-26T23:42:06.902Z,47.08
2019-05-26T23:44:35.555Z,47.08
2019-05-26T23:47:04.186Z,47.36
2019-05-26T23:49:32.876Z,46.74
2019-05-26T23:52:01.524Z,47.81
2019-05-26T23:54:30.210Z,49.96
2019-05-26T23:56:58.926Z,49.64
2019-05-26T23:59:27.603Z,47.71
